Online Now
Guests 1
Members   0

24/7 FSX Server
IP: 71.135.74.145
@ KLAX until 5/31/19



Information and tools for flight simulation use only - NOT for real avaition

File Flight Plans Here

KLAX 271253Z 00000KT 10SM FEW011 FEW018 SCT070 11/07 A2998 RMK AO2 SLP151 T01060072KLAX 271142Z 2712/2818 36006KT P6SM SCT050 FM271500 26008KT P6SM SCT050 FM271900 26015G23KT P6SM SCT050 FM280300 27010KT P6SM SCT250 FM280900 13006KT P6SM OVC015 FM281700 VRB03KT P6SM SCT025
Aviation Digital Data Service (ADDS)



Other FSX servers